EmailTwitter


Observations de surface / France / LFMK (07635)

Régions: Québec | Canada | États-Unis | Europe | France | UK | Elsewhere
Station
Affichage
Infos & localisation pour LFMK (07635) | Aide pour décoder les METARs

Observations prises le 2017-03-26 à 14H30 UTC à CARCASSONNE/SALV, FR (LFMK)

Température: 17.0 Celsius

Point de rosée: 7.0 Celsius

Humidité relative: 52%

Vents: Est à 26 km/h ou 14 noeuds.

Pression au niveau moyen de la mer: 101.70 kilopascals.

Observation METAR:

LFMK 261430Z AUTO 09014KT 070V150 CAVOK 17/07 Q1017 NOSIG=